EIN875 GCTS-EICK
Flight info
| Callsign | EIN875 |
|---|---|
| Flight time | 3h 23m |
| Altitude | 36000 |
| Route | BIMBO DCT GALPA DCT ASMAR DCT XERES DCT ADVAT/M078F360 T290 GELPO DCT JABEX/N0451F360 DCT SOVIX SOVIX1G |
| Aircraft | A320/M-SDE3FGHIRWY/LB1 |
Departure
| Time | 2026-05-04 11:42 |
|---|---|
| Airport | Tenerife Sur Airport (GCTS) |
Arrival
| Time | 2026-05-04 15:05 |
|---|---|
| Airport | Cork International Airport (EICK) |
| Time | Latitude | Longitude | Altitude | Speed | Heading |
|---|---|---|---|---|---|
| 2026-05-04 11:31 | 28.04779 | -16.57504 | 227 ft | 0 kts | 9° |
| 2026-05-04 11:34 | 28.04774 | -16.57505 | 227 ft | 3 kts | 9° |
| 2026-05-04 11:34 | 28.04749 | -16.57509 | 227 ft | 2 kts | 9° |
| 2026-05-04 11:34 | 28.04725 | -16.57510 | 228 ft | 4 kts | 342° |
| 2026-05-04 11:35 | 28.04705 | -16.57495 | 226 ft | 4 kts | 292° |
| 2026-05-04 11:35 | 28.04701 | -16.57467 | 225 ft | 4 kts | 260° |
| 2026-05-04 11:35 | 28.04709 | -16.57438 | 227 ft | 4 kts | 249° |
| 2026-05-04 11:35 | 28.04712 | -16.57431 | 226 ft | 0 kts | 249° |
| 2026-05-04 11:37 | 28.04711 | -16.57433 | 226 ft | 2 kts | 249° |
| 2026-05-04 11:37 | 28.04696 | -16.57471 | 224 ft | 9 kts | 237° |
| 2026-05-04 11:37 | 28.04619 | -16.57466 | 223 ft | 14 kts | 159° |
| 2026-05-04 11:38 | 28.04546 | -16.57493 | 222 ft | 14 kts | 248° |
| 2026-05-04 11:38 | 28.04497 | -16.57632 | 222 ft | 24 kts | 248° |
| 2026-05-04 11:38 | 28.04437 | -16.57803 | 222 ft | 22 kts | 248° |
| 2026-05-04 11:38 | 28.04383 | -16.57957 | 223 ft | 20 kts | 248° |
| 2026-05-04 11:39 | 28.04333 | -16.58102 | 222 ft | 19 kts | 249° |
| 2026-05-04 11:39 | 28.04290 | -16.58230 | 225 ft | 17 kts | 248° |
| 2026-05-04 11:40 | 28.03919 | -16.58912 | 206 ft | 21 kts | 119° |
| 2026-05-04 11:41 | 28.03923 | -16.58750 | 204 ft | 24 kts | 69° |
| 2026-05-04 11:41 | 28.04056 | -16.58369 | 196 ft | 85 kts | 68° |
| 2026-05-04 11:41 | 28.04350 | -16.57527 | 202 ft | 142 kts | 68° |
| 2026-05-04 11:41 | 28.04753 | -16.56408 | 580 ft | 155 kts | 72° |
| 2026-05-04 11:42 | 28.05150 | -16.55274 | 1279 ft | 155 kts | 69° |
| 2026-05-04 11:42 | 28.05552 | -16.54109 | 1787 ft | 167 kts | 67° |
| 2026-05-04 11:42 | 28.06002 | -16.52813 | 2201 ft | 184 kts | 68° |
| 2026-05-04 11:42 | 28.06476 | -16.51446 | 2884 ft | 190 kts | 67° |
| 2026-05-04 11:43 | 28.06959 | -16.50050 | 3583 ft | 193 kts | 68° |
| 2026-05-04 11:43 | 28.07478 | -16.48551 | 3853 ft | 216 kts | 68° |
| 2026-05-04 11:43 | 28.08049 | -16.46911 | 4357 ft | 229 kts | 68° |
| 2026-05-04 11:43 | 28.08643 | -16.45207 | 5034 ft | 236 kts | 68° |
| 2026-05-04 11:44 | 28.09238 | -16.43443 | 5670 ft | 244 kts | 69° |
| 2026-05-04 11:44 | 28.09828 | -16.41616 | 6330 ft | 250 kts | 69° |
| 2026-05-04 11:44 | 28.10433 | -16.39729 | 6901 ft | 259 kts | 67° |
| 2026-05-04 11:44 | 28.11381 | -16.37991 | 7495 ft | 262 kts | 41° |
| 2026-05-04 11:45 | 28.12893 | -16.36883 | 8161 ft | 260 kts | 15° |
| 2026-05-04 11:45 | 28.14662 | -16.36527 | 8868 ft | 259 kts | 0° |
| 2026-05-04 11:45 | 28.16473 | -16.36350 | 9579 ft | 263 kts | 0° |
| 2026-05-04 11:45 | 28.18309 | -16.36177 | 10269 ft | 267 kts | 360° |
| 2026-05-04 11:46 | 28.20144 | -16.36002 | 10915 ft | 270 kts | 359° |
| 2026-05-04 11:46 | 28.22027 | -16.35817 | 11600 ft | 272 kts | 359° |
| 2026-05-04 11:46 | 28.23923 | -16.35634 | 12281 ft | 275 kts | 359° |
| 2026-05-04 11:46 | 28.25859 | -16.35449 | 12772 ft | 288 kts | 358° |
| 2026-05-04 11:47 | 28.27937 | -16.35259 | 12958 ft | 311 kts | 359° |
| 2026-05-04 11:47 | 28.30176 | -16.35052 | 13118 ft | 335 kts | 359° |
| 2026-05-04 11:47 | 28.32575 | -16.34823 | 13252 ft | 357 kts | 360° |
| 2026-05-04 11:47 | 28.35128 | -16.34575 | 13403 ft | 378 kts | 0° |
| 2026-05-04 11:48 | 28.37815 | -16.34308 | 13538 ft | 397 kts | 0° |
| 2026-05-04 11:48 | 28.40630 | -16.34024 | 13675 ft | 414 kts | 1° |
| 2026-05-04 11:48 | 28.43536 | -16.33726 | 14041 ft | 423 kts | 0° |
| 2026-05-04 11:48 | 28.46485 | -16.33423 | 14522 ft | 427 kts | 0° |
| 2026-05-04 11:49 | 28.49462 | -16.33121 | 15008 ft | 431 kts | 0° |
| 2026-05-04 11:49 | 28.52455 | -16.32821 | 15511 ft | 434 kts | 0° |
| 2026-05-04 11:49 | 28.55471 | -16.32519 | 16011 ft | 437 kts | 0° |
| 2026-05-04 11:49 | 28.58514 | -16.32216 | 16475 ft | 441 kts | 0° |
| 2026-05-04 11:50 | 28.61577 | -16.31911 | 16925 ft | 444 kts | 0° |
| 2026-05-04 11:50 | 28.64664 | -16.31602 | 17364 ft | 447 kts | 0° |
| 2026-05-04 11:50 | 28.67767 | -16.31296 | 17798 ft | 449 kts | 0° |
| 2026-05-04 11:50 | 28.70896 | -16.30989 | 18237 ft | 452 kts | 0° |
| 2026-05-04 11:51 | 28.74038 | -16.30679 | 18605 ft | 455 kts | 0° |
| 2026-05-04 11:51 | 28.77162 | -16.30370 | 18941 ft | 458 kts | 0° |
| 2026-05-04 11:51 | 28.80342 | -16.30055 | 19274 ft | 460 kts | 0° |
| 2026-05-04 11:51 | 28.83543 | -16.29739 | 19606 ft | 463 kts | 0° |
| 2026-05-04 11:52 | 28.86761 | -16.29419 | 19922 ft | 466 kts | 0° |
| 2026-05-04 11:52 | 28.89998 | -16.29097 | 20235 ft | 468 kts | 0° |
| 2026-05-04 11:52 | 28.93252 | -16.28773 | 20533 ft | 471 kts | 0° |
| 2026-05-04 11:52 | 28.96526 | -16.28446 | 20827 ft | 473 kts | 0° |
| 2026-05-04 11:53 | 28.99810 | -16.28114 | 21115 ft | 475 kts | 0° |
| 2026-05-04 11:53 | 29.03112 | -16.27782 | 21399 ft | 477 kts | 0° |
| 2026-05-04 11:53 | 29.06429 | -16.27447 | 21675 ft | 480 kts | 0° |
| 2026-05-04 11:53 | 29.09764 | -16.27109 | 21950 ft | 482 kts | 0° |
| 2026-05-04 11:55 | 29.33479 | -16.24728 | 23659 ft | 496 kts | 360° |
| 2026-05-04 11:55 | 29.36918 | -16.24383 | 23843 ft | 497 kts | 360° |
| 2026-05-04 11:56 | 29.40369 | -16.24035 | 24051 ft | 498 kts | 0° |
| 2026-05-04 11:56 | 29.43818 | -16.23685 | 24328 ft | 496 kts | 0° |
| 2026-05-04 11:56 | 29.47255 | -16.23337 | 24601 ft | 495 kts | 360° |
| 2026-05-04 11:56 | 29.50683 | -16.22990 | 24865 ft | 495 kts | 360° |
| 2026-05-04 11:57 | 29.54111 | -16.22641 | 25128 ft | 494 kts | 360° |
| 2026-05-04 11:57 | 29.56382 | -16.22410 | 25295 ft | 494 kts | 360° |
| 2026-05-04 11:57 | 29.59806 | -16.22063 | 25559 ft | 494 kts | 360° |
| 2026-05-04 11:57 | 29.63227 | -16.21718 | 25831 ft | 493 kts | 359° |
| 2026-05-04 11:58 | 29.67751 | -16.21264 | 26193 ft | 493 kts | 359° |
| 2026-05-04 11:58 | 29.71169 | -16.20922 | 26470 ft | 493 kts | 359° |
| 2026-05-04 11:58 | 29.74581 | -16.20578 | 26748 ft | 492 kts | 359° |
| 2026-05-04 11:58 | 29.77992 | -16.20232 | 27036 ft | 492 kts | 359° |
| 2026-05-04 11:59 | 29.81403 | -16.19886 | 27327 ft | 492 kts | 359° |
| 2026-05-04 11:59 | 29.83705 | -16.19651 | 27516 ft | 491 kts | 359° |
| 2026-05-04 11:59 | 29.87107 | -16.19305 | 27821 ft | 491 kts | 359° |
| 2026-05-04 11:59 | 29.90509 | -16.18960 | 28119 ft | 491 kts | 359° |
| 2026-05-04 12:00 | 29.93910 | -16.18614 | 28423 ft | 490 kts | 359° |
| 2026-05-04 12:00 | 29.97259 | -16.18273 | 28757 ft | 489 kts | 359° |
| 2026-05-04 12:00 | 30.00641 | -16.17928 | 29107 ft | 488 kts | 359° |
| 2026-05-04 12:00 | 30.04021 | -16.17579 | 29426 ft | 487 kts | 359° |
| 2026-05-04 12:01 | 30.07395 | -16.17228 | 29749 ft | 487 kts | 359° |
| 2026-05-04 12:01 | 30.10766 | -16.16878 | 30070 ft | 486 kts | 359° |
| 2026-05-04 12:02 | 30.30934 | -16.14833 | 31709 ft | 483 kts | 358° |
| 2026-05-04 12:03 | 30.34282 | -16.14483 | 31967 ft | 483 kts | 358° |
| 2026-05-04 12:03 | 30.37634 | -16.14135 | 32223 ft | 483 kts | 358° |
| 2026-05-04 12:03 | 30.40982 | -16.13792 | 32478 ft | 483 kts | 358° |
| 2026-05-04 12:03 | 30.44333 | -16.13450 | 32731 ft | 483 kts | 358° |
| 2026-05-04 12:04 | 30.47685 | -16.13105 | 32981 ft | 483 kts | 358° |
| 2026-05-04 12:04 | 30.51034 | -16.12760 | 33247 ft | 484 kts | 358° |
| 2026-05-04 12:04 | 30.54384 | -16.12416 | 33518 ft | 483 kts | 358° |
| 2026-05-04 12:04 | 30.57731 | -16.12071 | 33787 ft | 483 kts | 358° |
| 2026-05-04 12:05 | 30.61075 | -16.11723 | 34042 ft | 483 kts | 357° |
| 2026-05-04 12:05 | 30.64418 | -16.11375 | 34270 ft | 483 kts | 357° |
| 2026-05-04 12:05 | 30.67764 | -16.11030 | 34490 ft | 482 kts | 357° |
| 2026-05-04 12:05 | 30.71105 | -16.10686 | 34721 ft | 482 kts | 357° |
| 2026-05-04 12:06 | 30.74446 | -16.10341 | 34935 ft | 482 kts | 357° |
| 2026-05-04 12:06 | 30.77784 | -16.09996 | 35148 ft | 481 kts | 357° |
| 2026-05-04 12:06 | 30.81113 | -16.09655 | 35396 ft | 480 kts | 357° |
| 2026-05-04 12:06 | 30.84393 | -16.09322 | 35624 ft | 479 kts | 357° |
| 2026-05-04 12:07 | 30.87756 | -16.08978 | 35831 ft | 478 kts | 357° |
| 2026-05-04 12:07 | 30.91021 | -16.08641 | 36024 ft | 478 kts | 357° |
| 2026-05-04 12:07 | 30.97671 | -16.07947 | 36135 ft | 483 kts | 357° |
| 2026-05-04 12:08 | 31.04404 | -16.07243 | 36134 ft | 487 kts | 357° |
| 2026-05-04 12:08 | 31.11148 | -16.06532 | 36129 ft | 486 kts | 358° |
| 2026-05-04 12:09 | 31.17874 | -16.05826 | 36133 ft | 485 kts | 358° |
| 2026-05-04 12:09 | 31.24604 | -16.05127 | 36138 ft | 486 kts | 358° |
| 2026-05-04 12:10 | 31.31335 | -16.04424 | 36138 ft | 486 kts | 358° |
| 2026-05-04 12:10 | 31.38065 | -16.03713 | 36156 ft | 485 kts | 358° |
| 2026-05-04 12:11 | 31.44748 | -16.02210 | 36152 ft | 497 kts | 14° |
| 2026-05-04 12:11 | 31.51262 | -15.99446 | 36147 ft | 498 kts | 14° |
| 2026-05-04 12:12 | 31.57776 | -15.96675 | 36154 ft | 498 kts | 14° |
| 2026-05-04 12:12 | 31.64281 | -15.93914 | 36163 ft | 497 kts | 14° |
| 2026-05-04 12:14 | 31.90157 | -15.82901 | 36169 ft | 494 kts | 15° |
| 2026-05-04 12:15 | 31.96615 | -15.80140 | 36157 ft | 493 kts | 15° |
| 2026-05-04 12:15 | 32.03062 | -15.77378 | 36158 ft | 493 kts | 15° |
| 2026-05-04 12:16 | 32.09501 | -15.74618 | 36149 ft | 492 kts | 15° |
| 2026-05-04 12:16 | 32.15932 | -15.71854 | 36146 ft | 492 kts | 15° |
| 2026-05-04 12:17 | 32.22359 | -15.69095 | 36160 ft | 491 kts | 15° |
| 2026-05-04 12:17 | 32.28782 | -15.66338 | 36155 ft | 491 kts | 15° |
| 2026-05-04 12:18 | 32.35195 | -15.63572 | 36154 ft | 490 kts | 15° |
| 2026-05-04 12:18 | 32.41600 | -15.60796 | 36149 ft | 490 kts | 15° |
| 2026-05-04 12:19 | 32.48000 | -15.58027 | 36147 ft | 490 kts | 15° |
| 2026-05-04 12:19 | 32.54398 | -15.55260 | 36144 ft | 489 kts | 15° |
| 2026-05-04 12:20 | 32.60793 | -15.52485 | 36141 ft | 490 kts | 15° |
| 2026-05-04 12:20 | 32.67189 | -15.49707 | 36143 ft | 489 kts | 15° |
| 2026-05-04 12:21 | 32.73583 | -15.46924 | 36161 ft | 489 kts | 15° |
| 2026-05-04 12:21 | 32.79972 | -15.44133 | 36165 ft | 489 kts | 15° |
| 2026-05-04 12:22 | 32.86368 | -15.41339 | 36155 ft | 490 kts | 15° |
| 2026-05-04 12:22 | 32.92762 | -15.38543 | 36153 ft | 489 kts | 15° |
| 2026-05-04 12:23 | 32.99149 | -15.35755 | 36158 ft | 489 kts | 15° |
| 2026-05-04 12:23 | 33.05490 | -15.32972 | 36176 ft | 489 kts | 16° |
| 2026-05-04 12:24 | 33.11911 | -15.30146 | 36172 ft | 488 kts | 15° |
| 2026-05-04 12:24 | 33.18286 | -15.27352 | 36163 ft | 488 kts | 15° |
| 2026-05-04 12:25 | 33.24605 | -15.24568 | 36155 ft | 487 kts | 16° |
| 2026-05-04 12:25 | 33.30962 | -15.21754 | 36169 ft | 487 kts | 16° |
| 2026-05-04 12:26 | 33.37316 | -15.18938 | 36167 ft | 487 kts | 16° |
| 2026-05-04 12:26 | 33.43671 | -15.16124 | 36167 ft | 487 kts | 16° |
| 2026-05-04 12:27 | 33.50025 | -15.13314 | 36168 ft | 487 kts | 16° |
| 2026-05-04 12:27 | 33.56377 | -15.10499 | 36188 ft | 487 kts | 15° |
| 2026-05-04 12:28 | 33.62723 | -15.07678 | 36184 ft | 486 kts | 15° |
| 2026-05-04 12:28 | 33.69060 | -15.04856 | 36180 ft | 486 kts | 15° |
| 2026-05-04 12:29 | 33.75391 | -15.02034 | 36181 ft | 485 kts | 15° |
| 2026-05-04 12:29 | 33.81720 | -14.99207 | 36207 ft | 485 kts | 15° |
| 2026-05-04 12:30 | 33.88041 | -14.96372 | 36197 ft | 484 kts | 15° |
| 2026-05-04 12:30 | 33.94347 | -14.93544 | 36194 ft | 483 kts | 15° |
| 2026-05-04 12:31 | 34.00607 | -14.90738 | 36189 ft | 483 kts | 15° |
| 2026-05-04 12:31 | 34.06909 | -14.87907 | 36185 ft | 483 kts | 15° |
| 2026-05-04 12:32 | 34.16346 | -14.83638 | 36198 ft | 483 kts | 15° |
| 2026-05-04 12:33 | 34.22642 | -14.80797 | 36189 ft | 483 kts | 15° |
| 2026-05-04 12:33 | 34.28940 | -14.77954 | 36189 ft | 483 kts | 15° |
| 2026-05-04 12:34 | 34.35244 | -14.75106 | 36210 ft | 484 kts | 15° |
| 2026-05-04 12:34 | 34.41500 | -14.72055 | 36199 ft | 488 kts | 20° |
| 2026-05-04 12:35 | 34.47615 | -14.68464 | 36198 ft | 488 kts | 20° |
| 2026-05-04 12:35 | 34.53726 | -14.64864 | 36200 ft | 489 kts | 20° |
| 2026-05-04 12:36 | 34.59840 | -14.61251 | 36196 ft | 488 kts | 20° |
| 2026-05-04 12:36 | 34.65948 | -14.57642 | 36218 ft | 488 kts | 20° |
| 2026-05-04 12:37 | 34.72052 | -14.54035 | 36218 ft | 488 kts | 20° |
| 2026-05-04 12:37 | 34.78110 | -14.50453 | 36215 ft | 487 kts | 20° |
| 2026-05-04 12:38 | 34.84202 | -14.46839 | 36205 ft | 487 kts | 20° |
| 2026-05-04 12:38 | 34.90290 | -14.43219 | 36234 ft | 487 kts | 20° |
| 2026-05-04 12:39 | 34.96377 | -14.39604 | 36218 ft | 486 kts | 20° |
| 2026-05-04 12:39 | 35.02455 | -14.35982 | 36213 ft | 486 kts | 20° |
| 2026-05-04 12:40 | 35.08530 | -14.32349 | 36209 ft | 486 kts | 20° |
| 2026-05-04 12:40 | 35.14599 | -14.28723 | 36204 ft | 486 kts | 20° |
| 2026-05-04 12:41 | 35.20670 | -14.25093 | 36204 ft | 486 kts | 20° |
| 2026-05-04 12:41 | 35.26741 | -14.21459 | 36213 ft | 486 kts | 20° |
| 2026-05-04 12:42 | 35.32811 | -14.17808 | 36207 ft | 486 kts | 20° |
| 2026-05-04 12:42 | 35.38884 | -14.14139 | 36208 ft | 487 kts | 20° |
| 2026-05-04 12:43 | 35.44962 | -14.10474 | 36237 ft | 487 kts | 19° |
| 2026-05-04 12:43 | 35.51038 | -14.06814 | 36224 ft | 486 kts | 20° |
| 2026-05-04 12:44 | 35.57062 | -14.03167 | 36221 ft | 486 kts | 20° |
| 2026-05-04 12:44 | 35.63124 | -13.99484 | 36218 ft | 486 kts | 20° |
| 2026-05-04 12:45 | 35.69183 | -13.95804 | 36248 ft | 486 kts | 20° |
| 2026-05-04 12:45 | 35.75237 | -13.92128 | 36232 ft | 485 kts | 20° |
| 2026-05-04 12:46 | 35.81275 | -13.88448 | 36227 ft | 484 kts | 20° |
| 2026-05-04 12:46 | 35.87311 | -13.84772 | 36222 ft | 484 kts | 19° |
| 2026-05-04 12:47 | 35.93338 | -13.81089 | 36215 ft | 483 kts | 19° |
| 2026-05-04 12:47 | 35.99354 | -13.77406 | 36209 ft | 481 kts | 19° |
| 2026-05-04 12:48 | 36.05338 | -13.73732 | 36201 ft | 480 kts | 19° |
| 2026-05-04 12:48 | 36.10311 | -13.70679 | 36198 ft | 480 kts | 19° |
| 2026-05-04 12:49 | 36.16292 | -13.66997 | 36198 ft | 480 kts | 19° |
| 2026-05-04 12:49 | 36.22271 | -13.63315 | 36218 ft | 480 kts | 20° |
| 2026-05-04 12:50 | 36.28244 | -13.59633 | 36214 ft | 479 kts | 20° |
| 2026-05-04 12:50 | 36.34201 | -13.55941 | 36206 ft | 479 kts | 20° |
| 2026-05-04 12:51 | 36.40155 | -13.52248 | 36209 ft | 478 kts | 20° |
| 2026-05-04 12:51 | 36.46106 | -13.48566 | 36218 ft | 478 kts | 20° |
| 2026-05-04 12:52 | 36.52054 | -13.44881 | 36226 ft | 477 kts | 21° |
| 2026-05-04 12:52 | 36.57942 | -13.41210 | 36219 ft | 476 kts | 21° |
| 2026-05-04 12:53 | 36.63860 | -13.37509 | 36214 ft | 476 kts | 21° |
| 2026-05-04 12:53 | 36.69774 | -13.33810 | 36210 ft | 475 kts | 21° |
| 2026-05-04 12:54 | 36.75687 | -13.30114 | 36231 ft | 475 kts | 21° |
| 2026-05-04 12:54 | 36.81592 | -13.26408 | 36222 ft | 475 kts | 21° |
| 2026-05-04 12:55 | 36.87487 | -13.22701 | 36216 ft | 474 kts | 21° |
| 2026-05-04 12:55 | 36.93379 | -13.18987 | 36206 ft | 474 kts | 21° |
| 2026-05-04 12:56 | 36.99273 | -13.15271 | 36225 ft | 474 kts | 21° |
| 2026-05-04 12:56 | 37.05162 | -13.11567 | 36233 ft | 474 kts | 21° |
| 2026-05-04 12:57 | 37.11043 | -13.07854 | 36218 ft | 473 kts | 21° |
| 2026-05-04 12:57 | 37.16913 | -13.04126 | 36213 ft | 473 kts | 21° |
| 2026-05-04 12:58 | 37.22778 | -13.00401 | 36209 ft | 472 kts | 21° |
| 2026-05-04 12:58 | 37.28678 | -12.96793 | 36223 ft | 470 kts | 18° |
| 2026-05-04 12:59 | 37.34635 | -12.93458 | 36216 ft | 468 kts | 17° |
| 2026-05-04 12:59 | 37.40602 | -12.90160 | 36207 ft | 468 kts | 18° |
| 2026-05-04 13:00 | 37.46545 | -12.86792 | 36207 ft | 469 kts | 18° |
| 2026-05-04 13:00 | 37.52479 | -12.83385 | 36230 ft | 469 kts | 18° |
| 2026-05-04 13:01 | 37.58403 | -12.79976 | 36212 ft | 468 kts | 18° |
| 2026-05-04 13:01 | 37.64320 | -12.76578 | 36224 ft | 467 kts | 18° |
| 2026-05-04 13:02 | 37.70198 | -12.73205 | 36211 ft | 467 kts | 18° |
| 2026-05-04 13:02 | 37.76111 | -12.69803 | 36205 ft | 467 kts | 18° |
| 2026-05-04 13:03 | 37.82022 | -12.66395 | 36210 ft | 467 kts | 18° |
| 2026-05-04 13:03 | 37.87926 | -12.62977 | 36205 ft | 467 kts | 18° |
| 2026-05-04 13:04 | 37.93829 | -12.59551 | 36194 ft | 466 kts | 18° |
| 2026-05-04 13:04 | 37.99730 | -12.56139 | 36225 ft | 466 kts | 18° |
| 2026-05-04 13:05 | 38.05626 | -12.52719 | 36212 ft | 466 kts | 18° |
| 2026-05-04 13:05 | 38.11507 | -12.49286 | 36202 ft | 465 kts | 18° |
| 2026-05-04 13:06 | 38.17388 | -12.45854 | 36194 ft | 465 kts | 18° |
| 2026-05-04 13:06 | 38.23265 | -12.42429 | 36214 ft | 465 kts | 18° |
| 2026-05-04 13:07 | 38.29137 | -12.38991 | 36223 ft | 465 kts | 18° |
| 2026-05-04 13:07 | 38.35006 | -12.35549 | 36203 ft | 464 kts | 18° |
| 2026-05-04 13:08 | 38.40879 | -12.32103 | 36189 ft | 465 kts | 18° |
| 2026-05-04 13:08 | 38.46752 | -12.28655 | 36187 ft | 465 kts | 18° |
| 2026-05-04 13:09 | 38.52621 | -12.25189 | 36206 ft | 465 kts | 18° |
| 2026-05-04 13:09 | 38.58489 | -12.21720 | 36198 ft | 465 kts | 18° |
| 2026-05-04 13:10 | 38.64360 | -12.18257 | 36194 ft | 465 kts | 18° |
| 2026-05-04 13:10 | 38.70232 | -12.14781 | 36193 ft | 465 kts | 18° |
| 2026-05-04 13:11 | 38.76104 | -12.11291 | 36211 ft | 465 kts | 18° |
| 2026-05-04 13:11 | 38.81977 | -12.07795 | 36204 ft | 465 kts | 18° |
| 2026-05-04 13:12 | 38.87806 | -12.04311 | 36193 ft | 465 kts | 18° |
| 2026-05-04 13:12 | 38.88423 | -12.03943 | 36211 ft | 465 kts | 18° |
| 2026-05-04 13:13 | 38.91915 | -12.01863 | 36201 ft | 465 kts | 18° |
| 2026-05-04 13:13 | 38.94506 | -12.00322 | 36196 ft | 465 kts | 18° |
| 2026-05-04 13:14 | 39.00376 | -11.96824 | 36176 ft | 465 kts | 18° |
| 2026-05-04 13:14 | 39.06236 | -11.93309 | 36175 ft | 465 kts | 18° |
| 2026-05-04 13:15 | 39.12097 | -11.89788 | 36172 ft | 465 kts | 18° |
| 2026-05-04 13:15 | 39.17964 | -11.86270 | 36174 ft | 465 kts | 18° |
| 2026-05-04 13:16 | 39.23830 | -11.82732 | 36201 ft | 465 kts | 18° |
| 2026-05-04 13:16 | 39.29695 | -11.79184 | 36189 ft | 465 kts | 18° |
| 2026-05-04 13:17 | 39.35560 | -11.75628 | 36177 ft | 466 kts | 18° |
| 2026-05-04 13:17 | 39.41428 | -11.72084 | 36172 ft | 466 kts | 18° |
| 2026-05-04 13:18 | 39.47298 | -11.68526 | 36189 ft | 466 kts | 18° |
| 2026-05-04 13:18 | 39.53167 | -11.64957 | 36180 ft | 466 kts | 18° |
| 2026-05-04 13:19 | 39.59035 | -11.61375 | 36176 ft | 466 kts | 18° |
| 2026-05-04 13:19 | 39.64904 | -11.57795 | 36166 ft | 466 kts | 18° |
| 2026-05-04 13:20 | 39.70769 | -11.54200 | 36188 ft | 466 kts | 18° |
| 2026-05-04 13:20 | 39.76597 | -11.50623 | 36176 ft | 466 kts | 18° |
| 2026-05-04 13:21 | 39.82466 | -11.47029 | 36170 ft | 466 kts | 18° |
| 2026-05-04 13:21 | 39.88341 | -11.43422 | 36168 ft | 467 kts | 18° |
| 2026-05-04 13:22 | 39.94215 | -11.39804 | 36189 ft | 467 kts | 18° |
| 2026-05-04 13:22 | 40.00084 | -11.36163 | 36177 ft | 467 kts | 18° |
| 2026-05-04 13:23 | 40.05949 | -11.32528 | 36166 ft | 467 kts | 18° |
| 2026-05-04 13:23 | 40.11822 | -11.28898 | 36170 ft | 467 kts | 18° |
| 2026-05-04 13:24 | 40.17699 | -11.25262 | 36151 ft | 468 kts | 19° |
| 2026-05-04 13:24 | 40.23575 | -11.21601 | 36146 ft | 468 kts | 19° |
| 2026-05-04 13:25 | 40.32394 | -11.16082 | 36151 ft | 468 kts | 19° |
| 2026-05-04 13:25 | 40.38278 | -11.12415 | 36182 ft | 468 kts | 19° |
| 2026-05-04 13:26 | 40.44159 | -11.08728 | 36167 ft | 469 kts | 19° |
| 2026-05-04 13:26 | 40.50045 | -11.05031 | 36164 ft | 469 kts | 19° |
| 2026-05-04 13:27 | 40.55935 | -11.01331 | 36158 ft | 469 kts | 19° |
| 2026-05-04 13:27 | 40.61821 | -10.97623 | 36178 ft | 469 kts | 19° |
| 2026-05-04 13:28 | 40.67708 | -10.93898 | 36184 ft | 469 kts | 19° |
| 2026-05-04 13:28 | 40.73601 | -10.90176 | 36159 ft | 470 kts | 19° |
| 2026-05-04 13:29 | 40.79502 | -10.86437 | 36145 ft | 471 kts | 19° |
| 2026-05-04 13:29 | 40.85406 | -10.82687 | 36167 ft | 471 kts | 19° |
| 2026-05-04 13:30 | 40.91320 | -10.78925 | 36149 ft | 472 kts | 19° |
| 2026-05-04 13:30 | 40.97198 | -10.75182 | 36143 ft | 472 kts | 19° |
| 2026-05-04 13:31 | 41.03115 | -10.71397 | 36139 ft | 472 kts | 20° |
| 2026-05-04 13:31 | 41.09035 | -10.67601 | 36153 ft | 473 kts | 20° |
| 2026-05-04 13:32 | 41.14959 | -10.63809 | 36145 ft | 473 kts | 20° |
| 2026-05-04 13:32 | 41.20880 | -10.60006 | 36138 ft | 473 kts | 20° |
| 2026-05-04 13:33 | 41.26802 | -10.56191 | 36150 ft | 473 kts | 20° |
| 2026-05-04 13:33 | 41.32731 | -10.52379 | 36143 ft | 474 kts | 20° |
| 2026-05-04 13:34 | 41.38668 | -10.48540 | 36132 ft | 474 kts | 20° |
| 2026-05-04 13:34 | 41.44600 | -10.44682 | 36127 ft | 475 kts | 20° |
| 2026-05-04 13:35 | 41.53509 | -10.38883 | 36155 ft | 475 kts | 20° |
| 2026-05-04 13:36 | 41.59452 | -10.35013 | 36142 ft | 475 kts | 20° |
| 2026-05-04 13:36 | 41.64392 | -10.31795 | 36137 ft | 475 kts | 20° |
| 2026-05-04 13:37 | 41.70335 | -10.27915 | 36129 ft | 475 kts | 20° |
| 2026-05-04 13:37 | 41.76274 | -10.24021 | 36141 ft | 475 kts | 21° |
| 2026-05-04 13:38 | 41.83168 | -10.19483 | 36139 ft | 475 kts | 21° |
| 2026-05-04 13:38 | 41.88138 | -10.16208 | 36130 ft | 475 kts | 21° |
| 2026-05-04 13:39 | 41.94071 | -10.12298 | 36121 ft | 475 kts | 21° |
| 2026-05-04 13:39 | 42.00012 | -10.08402 | 36127 ft | 474 kts | 18° |
| 2026-05-04 13:40 | 42.06251 | -10.06050 | 36118 ft | 461 kts | 3° |
| 2026-05-04 13:40 | 42.12610 | -10.04848 | 36109 ft | 461 kts | 3° |
| 2026-05-04 13:41 | 42.18963 | -10.03634 | 36125 ft | 461 kts | 3° |
| 2026-05-04 13:41 | 42.25282 | -10.02415 | 36118 ft | 462 kts | 3° |
| 2026-05-04 13:42 | 42.34826 | -10.00565 | 36111 ft | 462 kts | 3° |
| 2026-05-04 13:42 | 42.41193 | -9.99333 | 36111 ft | 462 kts | 3° |
| 2026-05-04 13:43 | 42.47556 | -9.98099 | 36104 ft | 462 kts | 3° |
| 2026-05-04 13:43 | 42.53919 | -9.96861 | 36102 ft | 462 kts | 3° |
| 2026-05-04 13:44 | 42.60280 | -9.95623 | 36123 ft | 462 kts | 4° |
| 2026-05-04 13:44 | 42.66641 | -9.94384 | 36108 ft | 462 kts | 4° |
| 2026-05-04 13:45 | 42.73004 | -9.93137 | 36096 ft | 462 kts | 4° |
| 2026-05-04 13:45 | 42.79365 | -9.91882 | 36093 ft | 462 kts | 4° |
| 2026-05-04 13:46 | 42.85729 | -9.90633 | 36106 ft | 462 kts | 4° |
| 2026-05-04 13:46 | 42.92096 | -9.89383 | 36103 ft | 462 kts | 4° |
| 2026-05-04 13:47 | 42.98467 | -9.88128 | 36097 ft | 463 kts | 4° |
| 2026-05-04 13:47 | 43.04838 | -9.86866 | 36107 ft | 463 kts | 4° |
| 2026-05-04 13:48 | 43.11209 | -9.85604 | 36104 ft | 463 kts | 4° |
| 2026-05-04 13:48 | 43.17582 | -9.84348 | 36097 ft | 463 kts | 4° |
| 2026-05-04 13:49 | 43.23954 | -9.83076 | 36110 ft | 463 kts | 5° |
| 2026-05-04 13:49 | 43.30334 | -9.81801 | 36096 ft | 464 kts | 5° |
| 2026-05-04 13:50 | 43.36676 | -9.80537 | 36083 ft | 464 kts | 5° |
| 2026-05-04 13:50 | 43.43070 | -9.79263 | 36095 ft | 464 kts | 5° |
| 2026-05-04 13:51 | 43.49461 | -9.77984 | 36090 ft | 464 kts | 5° |
| 2026-05-04 13:51 | 43.55863 | -9.76691 | 36083 ft | 465 kts | 5° |
| 2026-05-04 13:52 | 43.65464 | -9.74757 | 36094 ft | 465 kts | 6° |
| 2026-05-04 13:53 | 43.71866 | -9.73469 | 36085 ft | 465 kts | 6° |
| 2026-05-04 13:53 | 43.78270 | -9.72174 | 36079 ft | 465 kts | 6° |
| 2026-05-04 13:54 | 43.87871 | -9.70217 | 36082 ft | 465 kts | 6° |
| 2026-05-04 13:55 | 43.97460 | -9.68265 | 36067 ft | 464 kts | 6° |
| 2026-05-04 13:55 | 44.07045 | -9.66304 | 36072 ft | 464 kts | 6° |
| 2026-05-04 13:56 | 44.13432 | -9.64992 | 36062 ft | 464 kts | 6° |
| 2026-05-04 13:57 | 44.23008 | -9.63034 | 36063 ft | 464 kts | 6° |
| 2026-05-04 13:58 | 44.35774 | -9.60398 | 36064 ft | 463 kts | 6° |
| 2026-05-04 13:58 | 44.45346 | -9.58419 | 36060 ft | 464 kts | 6° |
| 2026-05-04 13:59 | 44.51729 | -9.57093 | 36059 ft | 463 kts | 6° |
| 2026-05-04 14:00 | 44.61298 | -9.55100 | 36064 ft | 463 kts | 6° |
| 2026-05-04 14:00 | 44.70810 | -9.53112 | 36052 ft | 462 kts | 6° |
| 2026-05-04 14:01 | 44.77173 | -9.51786 | 36043 ft | 462 kts | 6° |
| 2026-05-04 14:02 | 44.86722 | -9.49779 | 36043 ft | 463 kts | 7° |
| 2026-05-04 14:02 | 44.93090 | -9.48432 | 36037 ft | 463 kts | 7° |
| 2026-05-04 14:03 | 44.99462 | -9.47116 | 36038 ft | 462 kts | 4° |
| 2026-05-04 14:03 | 45.05873 | -9.47011 | 36037 ft | 461 kts | 358° |
| 2026-05-04 14:04 | 45.15482 | -9.47110 | 36031 ft | 460 kts | 358° |
| 2026-05-04 14:04 | 45.21889 | -9.47162 | 36036 ft | 461 kts | 358° |
| 2026-05-04 14:05 | 45.31505 | -9.47237 | 36036 ft | 461 kts | 358° |
| 2026-05-04 14:06 | 45.37917 | -9.47291 | 36031 ft | 461 kts | 358° |
| 2026-05-04 14:06 | 45.44325 | -9.47351 | 36034 ft | 461 kts | 359° |
| 2026-05-04 14:07 | 45.50736 | -9.47400 | 36035 ft | 461 kts | 359° |
| 2026-05-04 14:07 | 45.57149 | -9.47452 | 36035 ft | 461 kts | 358° |
| 2026-05-04 14:08 | 45.63561 | -9.47523 | 36038 ft | 461 kts | 359° |
| 2026-05-04 14:08 | 45.69973 | -9.47583 | 36040 ft | 460 kts | 359° |
| 2026-05-04 14:09 | 45.79579 | -9.47656 | 36038 ft | 460 kts | 359° |
| 2026-05-04 14:10 | 45.89179 | -9.47737 | 36037 ft | 460 kts | 359° |
| 2026-05-04 14:10 | 45.95577 | -9.47793 | 36033 ft | 460 kts | 359° |
| 2026-05-04 14:11 | 46.01976 | -9.47848 | 36033 ft | 460 kts | 359° |
| 2026-05-04 14:11 | 46.11521 | -9.47933 | 36031 ft | 459 kts | 359° |
| 2026-05-04 14:12 | 46.17910 | -9.47985 | 36025 ft | 459 kts | 359° |
| 2026-05-04 14:13 | 46.27495 | -9.48070 | 36031 ft | 459 kts | 360° |
| 2026-05-04 14:13 | 46.33885 | -9.48122 | 36033 ft | 459 kts | 360° |
| 2026-05-04 14:14 | 46.40279 | -9.48167 | 36034 ft | 459 kts | 360° |
| 2026-05-04 14:14 | 46.49870 | -9.48264 | 36034 ft | 459 kts | 359° |
| 2026-05-04 14:15 | 46.62648 | -9.48380 | 36031 ft | 459 kts | 360° |
| 2026-05-04 14:16 | 46.72211 | -9.48466 | 36031 ft | 458 kts | 360° |
| 2026-05-04 14:17 | 46.81770 | -9.48559 | 36029 ft | 458 kts | 0° |
| 2026-05-04 14:18 | 46.91320 | -9.48641 | 36035 ft | 457 kts | 0° |
| 2026-05-04 14:19 | 47.04034 | -9.48759 | 36030 ft | 456 kts | 0° |
| 2026-05-04 14:19 | 47.10374 | -9.48829 | 36035 ft | 456 kts | 0° |
| 2026-05-04 14:20 | 47.16722 | -9.48885 | 36027 ft | 456 kts | 0° |
| 2026-05-04 14:20 | 47.23071 | -9.48927 | 36022 ft | 456 kts | 0° |
| 2026-05-04 14:21 | 47.32596 | -9.49014 | 36033 ft | 456 kts | 0° |
| 2026-05-04 14:21 | 47.38897 | -9.49068 | 36033 ft | 456 kts | 0° |
| 2026-05-04 14:22 | 47.45232 | -9.49137 | 36031 ft | 455 kts | 0° |
| 2026-05-04 14:22 | 47.51572 | -9.49197 | 36033 ft | 455 kts | 0° |
| 2026-05-04 14:23 | 47.61072 | -9.49282 | 36033 ft | 455 kts | 0° |
| 2026-05-04 14:24 | 47.67405 | -9.49348 | 36037 ft | 455 kts | 0° |
| 2026-05-04 14:24 | 47.72707 | -9.49401 | 36038 ft | 455 kts | 0° |
| 2026-05-04 14:25 | 47.79032 | -9.49455 | 36039 ft | 454 kts | 0° |
| 2026-05-04 14:25 | 47.88473 | -9.49538 | 36038 ft | 454 kts | 0° |
| 2026-05-04 14:26 | 47.94789 | -9.49602 | 36034 ft | 454 kts | 0° |
| 2026-05-04 14:26 | 48.01109 | -9.49658 | 36038 ft | 454 kts | 0° |
| 2026-05-04 14:27 | 48.07428 | -9.49716 | 36042 ft | 454 kts | 0° |
| 2026-05-04 14:27 | 48.13746 | -9.49772 | 36038 ft | 454 kts | 0° |
| 2026-05-04 14:28 | 48.20063 | -9.49839 | 36051 ft | 454 kts | 0° |
| 2026-05-04 14:28 | 48.26378 | -9.49900 | 36042 ft | 454 kts | 0° |
| 2026-05-04 14:29 | 48.38986 | -9.50007 | 36056 ft | 453 kts | 1° |
| 2026-05-04 14:30 | 48.45287 | -9.50067 | 36047 ft | 453 kts | 0° |
| 2026-05-04 14:31 | 48.54750 | -9.50175 | 36041 ft | 454 kts | 0° |
| 2026-05-04 14:32 | 48.67381 | -9.50283 | 36046 ft | 454 kts | 1° |
| 2026-05-04 14:32 | 48.73690 | -9.50286 | 36053 ft | 453 kts | 1° |
| 2026-05-04 14:33 | 48.79994 | -9.50256 | 36049 ft | 453 kts | 1° |
| 2026-05-04 14:33 | 48.86301 | -9.50251 | 36054 ft | 453 kts | 1° |
| 2026-05-04 14:34 | 48.92558 | -9.50250 | 36050 ft | 452 kts | 1° |
| 2026-05-04 14:34 | 48.98842 | -9.50191 | 36055 ft | 451 kts | 5° |
| 2026-05-04 14:35 | 49.04968 | -9.48413 | 36061 ft | 448 kts | 15° |
| 2026-05-04 14:35 | 49.11025 | -9.46168 | 36059 ft | 448 kts | 14° |
| 2026-05-04 14:36 | 49.17082 | -9.43942 | 36058 ft | 447 kts | 15° |
| 2026-05-04 14:36 | 49.23130 | -9.41703 | 36056 ft | 447 kts | 15° |
| 2026-05-04 14:37 | 49.29167 | -9.39458 | 36054 ft | 446 kts | 15° |
| 2026-05-04 14:37 | 49.35201 | -9.37221 | 36055 ft | 446 kts | 15° |
| 2026-05-04 14:38 | 49.41233 | -9.34977 | 36049 ft | 446 kts | 15° |
| 2026-05-04 14:38 | 49.47255 | -9.32715 | 36050 ft | 446 kts | 15° |
| 2026-05-04 14:39 | 49.53280 | -9.30451 | 36056 ft | 446 kts | 15° |
| 2026-05-04 14:39 | 49.59300 | -9.28182 | 36058 ft | 445 kts | 15° |
| 2026-05-04 14:40 | 49.68327 | -9.24783 | 36068 ft | 444 kts | 15° |
| 2026-05-04 14:40 | 49.74332 | -9.22513 | 36073 ft | 444 kts | 15° |
| 2026-05-04 14:41 | 49.80334 | -9.20240 | 36079 ft | 444 kts | 15° |
| 2026-05-04 14:42 | 49.92309 | -9.15664 | 36082 ft | 442 kts | 15° |
| 2026-05-04 14:42 | 49.98244 | -9.13393 | 36081 ft | 442 kts | 15° |
| 2026-05-04 14:43 | 50.04225 | -9.11104 | 36068 ft | 443 kts | 15° |
| 2026-05-04 14:43 | 50.10209 | -9.08806 | 36062 ft | 443 kts | 15° |
| 2026-05-04 14:44 | 50.16182 | -9.06502 | 36076 ft | 442 kts | 15° |
| 2026-05-04 14:44 | 50.22153 | -9.04191 | 36073 ft | 442 kts | 15° |
| 2026-05-04 14:45 | 50.28118 | -9.01878 | 36077 ft | 442 kts | 15° |
| 2026-05-04 14:45 | 50.34077 | -8.99556 | 35732 ft | 439 kts | 16° |
| 2026-05-04 14:46 | 50.37035 | -8.98400 | 35493 ft | 437 kts | 16° |
| 2026-05-04 14:46 | 50.39986 | -8.97249 | 35255 ft | 436 kts | 16° |
| 2026-05-04 14:46 | 50.42927 | -8.96104 | 34542 ft | 437 kts | 16° |
| 2026-05-04 14:46 | 50.45873 | -8.94955 | 33678 ft | 434 kts | 17° |
| 2026-05-04 14:47 | 50.48791 | -8.93822 | 32728 ft | 431 kts | 17° |
| 2026-05-04 14:47 | 50.51690 | -8.92692 | 31784 ft | 427 kts | 17° |
| 2026-05-04 14:47 | 50.54566 | -8.91571 | 30759 ft | 424 kts | 18° |
| 2026-05-04 14:47 | 50.57406 | -8.90459 | 29772 ft | 418 kts | 18° |
| 2026-05-04 14:48 | 50.60223 | -8.89350 | 28612 ft | 416 kts | 18° |
| 2026-05-04 14:48 | 50.63017 | -8.88244 | 27563 ft | 413 kts | 18° |
| 2026-05-04 14:48 | 50.65807 | -8.87141 | 26459 ft | 413 kts | 18° |
| 2026-05-04 14:48 | 50.68599 | -8.86039 | 25355 ft | 414 kts | 17° |
| 2026-05-04 14:49 | 50.71392 | -8.84934 | 24296 ft | 414 kts | 17° |
| 2026-05-04 14:49 | 50.74185 | -8.83828 | 23183 ft | 414 kts | 17° |
| 2026-05-04 14:49 | 50.76984 | -8.82717 | 22108 ft | 414 kts | 17° |
| 2026-05-04 14:49 | 50.79751 | -8.81616 | 21316 ft | 408 kts | 17° |
| 2026-05-04 14:50 | 50.82488 | -8.80526 | 20519 ft | 403 kts | 17° |
| 2026-05-04 14:50 | 50.85199 | -8.79449 | 19728 ft | 400 kts | 16° |
| 2026-05-04 14:50 | 50.87893 | -8.78379 | 18962 ft | 398 kts | 16° |
| 2026-05-04 14:50 | 50.90573 | -8.77315 | 18177 ft | 397 kts | 16° |
| 2026-05-04 14:51 | 50.93244 | -8.76253 | 17382 ft | 394 kts | 16° |
| 2026-05-04 14:51 | 50.95888 | -8.75197 | 16668 ft | 390 kts | 16° |
| 2026-05-04 14:51 | 50.98513 | -8.74147 | 15964 ft | 388 kts | 15° |
| 2026-05-04 14:51 | 51.01120 | -8.73102 | 15274 ft | 385 kts | 15° |
| 2026-05-04 14:52 | 51.03709 | -8.72064 | 14609 ft | 382 kts | 15° |
| 2026-05-04 14:52 | 51.06244 | -8.71045 | 13974 ft | 380 kts | 15° |
| 2026-05-04 14:52 | 51.08796 | -8.70017 | 13287 ft | 376 kts | 15° |
| 2026-05-04 14:52 | 51.11314 | -8.69000 | 12663 ft | 371 kts | 15° |
| 2026-05-04 14:53 | 51.13797 | -8.68001 | 12047 ft | 366 kts | 15° |
| 2026-05-04 14:53 | 51.16252 | -8.67015 | 11449 ft | 362 kts | 15° |
| 2026-05-04 14:53 | 51.18657 | -8.66048 | 11135 ft | 349 kts | 15° |
| 2026-05-04 14:53 | 51.20952 | -8.65122 | 11058 ft | 330 kts | 15° |
| 2026-05-04 14:54 | 51.23110 | -8.64246 | 11068 ft | 311 kts | 15° |
| 2026-05-04 14:54 | 51.25147 | -8.63421 | 11072 ft | 293 kts | 15° |
| 2026-05-04 14:54 | 51.27091 | -8.62639 | 11071 ft | 286 kts | 15° |
| 2026-05-04 14:54 | 51.29015 | -8.61862 | 11068 ft | 285 kts | 15° |
| 2026-05-04 14:55 | 51.30936 | -8.61083 | 11077 ft | 285 kts | 16° |
| 2026-05-04 14:55 | 51.32855 | -8.60303 | 11070 ft | 284 kts | 16° |
| 2026-05-04 14:55 | 51.34772 | -8.59523 | 11078 ft | 284 kts | 16° |
| 2026-05-04 14:55 | 51.36672 | -8.58750 | 10717 ft | 279 kts | 16° |
| 2026-05-04 14:56 | 51.38556 | -8.57987 | 10102 ft | 281 kts | 16° |
| 2026-05-04 14:56 | 51.40446 | -8.57221 | 9714 ft | 279 kts | 16° |
| 2026-05-04 14:56 | 51.42323 | -8.56456 | 9310 ft | 277 kts | 16° |
| 2026-05-04 14:56 | 51.44161 | -8.55573 | 8920 ft | 274 kts | 27° |
| 2026-05-04 14:57 | 51.45663 | -8.53769 | 8531 ft | 270 kts | 42° |
| 2026-05-04 14:57 | 51.47066 | -8.51780 | 8120 ft | 268 kts | 41° |
| 2026-05-04 14:57 | 51.48460 | -8.49808 | 7720 ft | 266 kts | 41° |
| 2026-05-04 14:57 | 51.49839 | -8.47898 | 7332 ft | 264 kts | 37° |
| 2026-05-04 14:58 | 51.51453 | -8.46511 | 6888 ft | 265 kts | 24° |
| 2026-05-04 14:58 | 51.53160 | -8.45319 | 6351 ft | 269 kts | 23° |
| 2026-05-04 14:58 | 51.54844 | -8.44155 | 5994 ft | 256 kts | 23° |
| 2026-05-04 14:58 | 51.56427 | -8.43067 | 5660 ft | 240 kts | 23° |
| 2026-05-04 14:59 | 51.57909 | -8.42048 | 5359 ft | 225 kts | 23° |
| 2026-05-04 14:59 | 51.59333 | -8.41072 | 5079 ft | 220 kts | 23° |
| 2026-05-04 14:59 | 51.62098 | -8.39166 | 4523 ft | 212 kts | 23° |
| 2026-05-04 15:00 | 51.63445 | -8.38260 | 4266 ft | 207 kts | 18° |
| 2026-05-04 15:00 | 51.64856 | -8.37975 | 4018 ft | 205 kts | 355° |
| 2026-05-04 15:00 | 51.66204 | -8.38557 | 3900 ft | 197 kts | 342° |
| 2026-05-04 15:01 | 51.68669 | -8.40005 | 3565 ft | 182 kts | 342° |
| 2026-05-04 15:01 | 51.69839 | -8.40691 | 3322 ft | 176 kts | 342° |
| 2026-05-04 15:01 | 51.70965 | -8.41353 | 3080 ft | 166 kts | 342° |
| 2026-05-04 15:01 | 51.72028 | -8.41978 | 2864 ft | 160 kts | 343° |
| 2026-05-04 15:02 | 51.73063 | -8.42586 | 2649 ft | 157 kts | 343° |
| 2026-05-04 15:02 | 51.74076 | -8.43182 | 2464 ft | 148 kts | 342° |
| 2026-05-04 15:02 | 51.75000 | -8.43736 | 2217 ft | 136 kts | 342° |
| 2026-05-04 15:02 | 51.75854 | -8.44243 | 2041 ft | 128 kts | 343° |
| 2026-05-04 15:03 | 51.76690 | -8.44725 | 1881 ft | 127 kts | 343° |
| 2026-05-04 15:03 | 51.77514 | -8.45212 | 1729 ft | 126 kts | 342° |
| 2026-05-04 15:03 | 51.78339 | -8.45699 | 1522 ft | 127 kts | 341° |
| 2026-05-04 15:03 | 51.79163 | -8.46189 | 1334 ft | 125 kts | 341° |
| 2026-05-04 15:04 | 51.79981 | -8.46681 | 1224 ft | 126 kts | 342° |
| 2026-05-04 15:04 | 51.80804 | -8.47158 | 1044 ft | 125 kts | 342° |
| 2026-05-04 15:04 | 51.81622 | -8.47629 | 847 ft | 126 kts | 342° |
| 2026-05-04 15:04 | 51.82450 | -8.48121 | 664 ft | 127 kts | 341° |
| 2026-05-04 15:05 | 51.83281 | -8.48605 | 511 ft | 126 kts | 341° |
| 2026-05-04 15:05 | 51.84035 | -8.49051 | 474 ft | 96 kts | 340° |
| 2026-05-04 15:05 | 51.84494 | -8.49323 | 489 ft | 48 kts | 340° |
| 2026-05-04 15:05 | 51.84692 | -8.49440 | 488 ft | 25 kts | 340° |
| 2026-05-04 15:06 | 51.84775 | -8.49441 | 489 ft | 11 kts | 59° |
| 2026-05-04 15:06 | 51.84794 | -8.49347 | 491 ft | 6 kts | 72° |
| 2026-05-04 15:06 | 51.84800 | -8.49316 | 489 ft | 1 kts | 71° |
| 2026-05-04 15:07 | 51.84814 | -8.49237 | 474 ft | 4 kts | 79° |
| 2026-05-04 15:07 | 51.84823 | -8.49162 | 503 ft | 10 kts | 76° |
| 2026-05-04 15:07 | 51.84845 | -8.49064 | 503 ft | 3 kts | 70° |
| 2026-05-04 15:07 | 51.84845 | -8.49063 | 503 ft | 0 kts | 70° |